Time;durP1;ratioP1;P1;durP2;ratioP2;P2;SDS_P1;SDS_P2;PMS_P1;PMS_P2;Temp;Humidity;BMP_temperature;BMP_pressure;BME280_temperature;BME280_humidity;BME280_pressure;Samples;Min_cycle;Max_cycle;Signal;HPM_P1;HPM_P2
2021/11/03 00:00:33;;;;;;;6.72;4.00;;;7.60;99.90;;;;;;5074783;28;20108;-45
2021/11/03 00:03:01;;;;;;;5.75;2.95;;;7.60;99.90;;;;;;5089468;28;20024;-45
2021/11/03 00:05:27;;;;;;;5.40;3.40;;;7.50;99.90;;;;;;5089368;28;20051;-46
2021/11/03 00:07:55;;;;;;;4.50;3.05;;;7.50;99.90;;;;;;5088482;28;20024;-46
2021/11/03 00:10:21;;;;;;;8.85;3.50;;;7.50;99.90;;;;;;5089048;28;20036;-48
2021/11/03 00:12:47;;;;;;;5.05;3.05;;;7.50;99.90;;;;;;5087514;28;20027;-46
2021/11/03 00:15:13;;;;;;;4.43;2.75;;;7.50;99.90;;;;;;5088859;28;20032;-46
2021/11/03 00:17:38;;;;;;;4.07;3.20;;;7.50;99.90;;;;;;5088365;28;20059;-46
2021/11/03 00:20:06;;;;;;;3.70;2.70;;;7.50;99.90;;;;;;5087374;28;20132;-49
2021/11/03 00:22:32;;;;;;;4.65;3.33;;;7.50;99.90;;;;;;5087363;28;20027;-45
2021/11/03 00:24:57;;;;;;;3.10;2.80;;;7.50;99.90;;;;;;5087183;28;20400;-47
2021/11/03 00:27:23;;;;;;;4.25;2.88;;;7.40;99.90;;;;;;5088133;28;20095;-46
2021/11/03 00:29:48;;;;;;;3.63;2.90;;;7.40;99.90;;;;;;5080558;28;20017;-46
2021/11/03 00:32:14;;;;;;;4.43;2.80;;;7.40;99.90;;;;;;5080149;28;20028;-45
2021/11/03 00:34:40;;;;;;;7.05;3.25;;;7.40;99.90;;;;;;5088557;28;20611;-47
2021/11/03 00:37:05;;;;;;;5.55;3.28;;;7.30;99.90;;;;;;5088392;28;20031;-46
2021/11/03 00:39:31;;;;;;;6.63;3.08;;;7.30;99.90;;;;;;5088721;28;20077;-46
2021/11/03 00:41:57;;;;;;;5.28;3.05;;;7.30;99.90;;;;;;5089156;28;20065;-47
2021/11/03 00:44:23;;;;;;;9.15;3.30;;;7.30;99.90;;;;;;5088885;28;20468;-46
2021/11/03 00:46:50;;;;;;;4.53;3.10;;;7.20;99.90;;;;;;5087990;28;20027;-47
2021/11/03 00:49:17;;;;;;;4.45;3.30;;;7.20;99.90;;;;;;5075478;28;20055;-46
2021/11/03 00:51:42;;;;;;;4.38;3.45;;;7.10;99.90;;;;;;5078762;28;20038;-46
2021/11/03 00:54:08;;;;;;;5.93;4.25;;;7.10;99.90;;;;;;5086938;28;20107;-47
2021/11/03 00:56:34;;;;;;;6.43;3.05;;;7.10;99.90;;;;;;5088311;28;20028;-47
2021/11/03 00:58:59;;;;;;;3.55;3.05;;;7.00;99.90;;;;;;5074555;28;20023;-45
2021/11/03 01:01:25;;;;;;;6.95;3.45;;;7.00;99.90;;;;;;5079839;28;20016;-46
2021/11/03 01:03:51;;;;;;;7.53;2.75;;;6.90;99.90;;;;;;5088464;28;20024;-46
2021/11/03 01:06:16;;;;;;;4.78;3.25;;;6.90;99.90;;;;;;5088701;28;20020;-47
2021/11/03 01:08:42;;;;;;;6.75;2.90;;;6.80;99.90;;;;;;5087687;28;20080;-48
2021/11/03 01:11:08;;;;;;;5.13;3.83;;;6.90;99.90;;;;;;5089667;28;20036;-47
2021/11/03 01:13:34;;;;;;;9.35;3.08;;;6.80;99.90;;;;;;5092287;28;20031;-49
2021/11/03 01:16:00;;;;;;;4.13;3.55;;;6.80;99.90;;;;;;5092407;28;20028;-46
2021/11/03 01:18:28;;;;;;;5.78;3.38;;;6.80;99.90;;;;;;5091951;28;20020;-46
2021/11/03 01:20:53;;;;;;;5.28;3.40;;;6.80;99.90;;;;;;5092385;28;20028;-49
2021/11/03 01:23:20;;;;;;;4.72;3.08;;;6.70;99.90;;;;;;5092537;28;20070;-46
2021/11/03 01:25:47;;;;;;;5.82;3.08;;;6.80;99.90;;;;;;5092447;28;20039;-47
2021/11/03 01:28:13;;;;;;;4.45;3.30;;;6.80;99.90;;;;;;5085133;28;20028;-48
2021/11/03 01:30:39;;;;;;;5.72;3.90;;;6.70;99.90;;;;;;5078347;28;20486;-47
2021/11/03 01:33:05;;;;;;;4.72;3.10;;;6.80;99.90;;;;;;5092025;28;20035;-46
2021/11/03 01:35:32;;;;;;;4.15;2.75;;;6.80;99.90;;;;;;5091857;28;20516;-49
2021/11/03 01:37:58;;;;;;;3.38;2.47;;;6.70;99.90;;;;;;5091461;28;20107;-48
2021/11/03 01:40:29;;;;;;;3.45;3.15;;;6.70;99.90;;;;;;5091935;28;20027;-48
2021/11/03 01:42:55;;;;;;;4.57;2.30;;;6.80;99.90;;;;;;5091956;28;20020;-48
2021/11/03 01:45:23;;;;;;;5.28;2.60;;;6.70;99.90;;;;;;5091520;28;20031;-46
2021/11/03 01:47:53;;;;;;;3.15;2.38;;;6.80;99.90;;;;;;5091011;28;20504;-46
2021/11/03 01:50:47;;;;;;;4.95;2.42;;;6.70;99.90;;;;;;5091716;28;20040;-46
2021/11/03 01:53:22;;;;;;;2.63;2.25;;;6.70;99.90;;;;;;5089774;28;20059;-46
2021/11/03 01:55:53;;;;;;;3.83;2.47;;;6.70;99.90;;;;;;5091702;28;20031;-46
2021/11/03 01:58:26;;;;;;;4.72;2.30;;;6.70;99.90;;;;;;5082462;28;20029;-48
2021/11/03 02:00:55;;;;;;;4.68;2.85;;;6.70;99.90;;;;;;5081827;28;20124;-49
2021/11/03 02:03:25;;;;;;;5.75;2.80;;;6.70;99.90;;;;;;5091807;28;20653;-47
2021/11/03 02:05:56;;;;;;;3.00;2.50;;;6.60;99.90;;;;;;5091713;28;20024;-49
2021/11/03 02:08:22;;;;;;;3.97;2.78;;;6.50;99.90;;;;;;5090934;28;20035;-46
2021/11/03 02:10:47;;;;;;;5.22;2.90;;;6.50;99.90;;;;;;5091357;28;20039;-45
2021/11/03 02:13:14;;;;;;;3.72;2.35;;;6.40;99.90;;;;;;5091198;28;20036;-47
2021/11/03 02:15:42;;;;;;;4.40;2.85;;;6.40;99.90;;;;;;5091002;28;20501;-47
2021/11/03 02:18:11;;;;;;;4.35;2.60;;;6.30;99.90;;;;;;5090927;28;20407;-49
2021/11/03 02:20:39;;;;;;;4.75;3.15;;;6.20;99.90;;;;;;5060884;28;20044;-46
2021/11/03 02:23:23;;;;;;;4.00;3.10;;;6.10;99.90;;;;;;5058890;28;20021;-47
2021/11/03 02:26:06;;;;;;;3.22;2.55;;;6.10;99.90;;;;;;5060118;28;20171;-49
2021/11/03 02:28:32;;;;;;;3.45;2.53;;;6.00;99.90;;;;;;5059961;28;20100;-49
2021/11/03 02:30:58;;;;;;;4.90;2.67;;;5.90;99.90;;;;;;5067736;28;20464;-47
2021/11/03 02:33:25;;;;;;;3.00;2.70;;;5.90;99.90;;;;;;5059320;28;20057;-49
2021/11/03 02:36:05;;;;;;;4.38;2.78;;;5.80;99.90;;;;;;5060301;28;20032;-49
2021/11/03 02:38:40;;;;;;;3.63;2.70;;;5.80;99.90;;;;;;5059489;28;20017;-49
2021/11/03 02:41:14;;;;;;;2.65;2.25;;;5.80;99.90;;;;;;5061073;28;20028;-46
2021/11/03 02:43:58;;;;;;;2.55;2.30;;;5.80;99.90;;;;;;5060988;28;20506;-50
2021/11/03 02:46:23;;;;;;;3.10;2.47;;;5.70;99.90;;;;;;5061053;28;20074;-49
2021/11/03 02:48:49;;;;;;;3.88;2.67;;;5.70;99.90;;;;;;5059409;28;20032;-46
2021/11/03 02:51:20;;;;;;;5.07;2.90;;;5.60;99.90;;;;;;5058251;28;20027;-48
2021/11/03 02:53:47;;;;;;;3.80;2.60;;;5.70;99.90;;;;;;5059342;28;20032;-47
2021/11/03 02:56:17;;;;;;;3.53;2.42;;;5.60;99.90;;;;;;5059749;28;20024;-49
2021/11/03 02:58:43;;;;;;;4.40;3.13;;;5.50;99.90;;;;;;5061325;28;20023;-51
2021/11/03 03:01:20;;;;;;;6.40;3.05;;;5.50;99.90;;;;;;5065065;28;20532;-48
2021/11/03 03:03:46;;;;;;;5.28;2.97;;;5.60;99.90;;;;;;5059039;28;20422;-50
2021/11/03 03:06:20;;;;;;;4.22;3.15;;;5.60;99.90;;;;;;5059642;28;20031;-49
2021/11/03 03:08:46;;;;;;;5.90;3.78;;;5.80;99.90;;;;;;5058101;28;20021;-48
2021/11/03 03:11:12;;;;;;;6.07;3.65;;;5.90;99.90;;;;;;5059422;28;20020;-48
2021/11/03 03:13:38;;;;;;;7.95;4.50;;;6.00;99.90;;;;;;5058663;28;20429;-46
2021/11/03 03:16:04;;;;;;;6.30;3.80;;;6.10;99.90;;;;;;5058276;28;20032;-50
2021/11/03 03:18:30;;;;;;;5.40;3.75;;;6.20;99.90;;;;;;5059025;28;20020;-50
2021/11/03 03:20:55;;;;;;;6.28;3.88;;;6.20;99.90;;;;;;5060118;28;20017;-46
2021/11/03 03:23:21;;;;;;;8.15;3.20;;;6.30;99.90;;;;;;5058220;28;20017;-46
2021/11/03 03:25:47;;;;;;;3.50;3.20;;;6.30;99.90;;;;;;5060062;28;20479;-47
2021/11/03 03:28:15;;;;;;;5.53;3.38;;;6.30;99.90;;;;;;5057239;28;20033;-49
2021/11/03 03:30:41;;;;;;;4.38;3.58;;;6.40;99.90;;;;;;5060827;28;20275;-46
2021/11/03 03:33:06;;;;;;;4.40;2.75;;;6.40;99.90;;;;;;5089358;28;20500;-49
2021/11/03 03:35:32;;;;;;;6.60;3.17;;;6.40;99.90;;;;;;5089294;28;20055;-47
2021/11/03 03:37:57;;;;;;;5.43;3.67;;;6.40;99.90;;;;;;5089150;28;20028;-49
2021/11/03 03:40:23;;;;;;;7.25;3.58;;;6.40;99.90;;;;;;5088312;28;20032;-47
2021/11/03 03:42:49;;;;;;;4.00;3.28;;;6.40;99.90;;;;;;5089922;28;20040;-48
2021/11/03 03:45:15;;;;;;;5.55;3.47;;;6.40;99.90;;;;;;5089263;28;20111;-48
2021/11/03 03:47:40;;;;;;;4.53;3.17;;;6.50;99.90;;;;;;5087465;28;20118;-48
2021/11/03 03:50:07;;;;;;;5.97;3.42;;;6.50;99.90;;;;;;5089268;28;20122;-48
2021/11/03 03:52:33;;;;;;;6.85;3.67;;;6.60;99.90;;;;;;5089420;28;20070;-49
2021/11/03 03:54:59;;;;;;;4.43;3.53;;;6.50;99.90;;;;;;5089214;28;20393;-48
2021/11/03 03:57:24;;;;;;;4.13;3.25;;;6.60;99.90;;;;;;5088967;28;20063;-48
2021/11/03 03:59:51;;;;;;;5.10;3.80;;;6.60;99.90;;;;;;5077502;28;20110;-47
2021/11/03 04:02:17;;;;;;;3.63;3.28;;;6.60;99.90;;;;;;5083684;28;20030;-49
2021/11/03 04:04:43;;;;;;;7.93;4.25;;;6.70;99.90;;;;;;5087886;28;20016;-49
2021/11/03 04:07:09;;;;;;;6.20;4.30;;;6.70;99.90;;;;;;5088465;28;20563;-47
2021/11/03 04:09:34;;;;;;;8.57;5.07;;;6.70;99.90;;;;;;5088973;28;20032;-48
2021/11/03 04:12:00;;;;;;;7.38;4.70;;;6.70;99.90;;;;;;5089054;28;20245;-48
2021/11/03 04:14:25;;;;;;;14.50;5.85;;;6.80;99.90;;;;;;5087376;28;20051;-47
2021/11/03 04:16:51;;;;;;;7.57;4.63;;;6.80;99.90;;;;;;5088948;28;20255;-47
2021/11/03 04:19:17;;;;;;;7.60;5.45;;;6.90;99.90;;;;;;5087174;28;20443;-47
2021/11/03 04:21:42;;;;;;;7.90;5.07;;;6.90;99.90;;;;;;5089353;28;20069;-46
2021/11/03 04:24:08;;;;;;;8.02;5.13;;;6.90;99.90;;;;;;5089076;28;20043;-50
2021/11/03 04:26:36;;;;;;;6.75;5.40;;;6.90;99.90;;;;;;5088942;28;20039;-50
2021/11/03 04:29:03;;;;;;;9.60;5.43;;;6.90;99.90;;;;;;5080432;28;20027;-47
2021/11/03 04:31:29;;;;;;;8.88;6.15;;;6.90;99.90;;;;;;5080300;28;20112;-48
2021/11/03 04:33:55;;;;;;;7.82;5.20;;;6.90;99.90;;;;;;5089090;28;20093;-49
2021/11/03 04:36:22;;;;;;;7.90;5.43;;;6.90;99.90;;;;;;5088579;28;20024;-49
2021/11/03 04:38:51;;;;;;;8.98;5.72;;;7.00;99.90;;;;;;5086741;28;20221;-48
2021/11/03 04:41:16;;;;;;;8.25;6.03;;;6.90;99.90;;;;;;5088500;28;20020;-49
2021/11/03 04:43:42;;;;;;;9.20;6.30;;;6.90;99.90;;;;;;5088640;28;20120;-50
2021/11/03 04:46:08;;;;;;;10.60;5.50;;;7.00;99.90;;;;;;5087039;28;20595;-47
2021/11/03 04:48:34;;;;;;;8.32;5.80;;;7.00;99.90;;;;;;5086824;28;20111;-50
2021/11/03 04:50:59;;;;;;;9.55;5.70;;;7.00;99.90;;;;;;5089184;28;20126;-47
2021/11/03 04:53:25;;;;;;;9.52;5.80;;;7.00;99.90;;;;;;5088475;28;20508;-49
2021/11/03 04:55:53;;;;;;;8.65;6.07;;;7.00;99.90;;;;;;5088648;28;20178;-49
2021/11/03 04:58:18;;;;;;;10.52;6.97;;;7.00;99.90;;;;;;5083495;28;20024;-50
2021/11/03 05:00:46;;;;;;;15.40;6.95;;;7.00;99.90;;;;;;5074730;28;20021;-48
2021/11/03 05:03:11;;;;;;;11.88;7.25;;;7.00;99.90;;;;;;5056921;28;20013;-49
2021/11/03 05:05:37;;;;;;;8.90;6.45;;;7.00;99.90;;;;;;5058182;28;20098;-47
2021/11/03 05:08:03;;;;;;;12.13;6.70;;;7.00;99.90;;;;;;5067769;28;20029;-49
2021/11/03 05:10:29;;;;;;;10.15;6.38;;;7.10;99.90;;;;;;5065595;28;20033;-48
2021/11/03 05:12:54;;;;;;;8.35;5.75;;;7.00;99.90;;;;;;5068384;28;20091;-50
2021/11/03 05:15:20;;;;;;;7.75;5.55;;;7.10;99.90;;;;;;5068353;28;20033;-50
2021/11/03 05:17:46;;;;;;;9.30;6.15;;;7.00;99.90;;;;;;5069015;28;20056;-46
2021/11/03 05:20:13;;;;;;;7.13;5.45;;;7.00;99.90;;;;;;5069804;28;20576;-47
2021/11/03 05:22:38;;;;;;;6.30;5.10;;;7.00;99.90;;;;;;5068475;28;20021;-47
2021/11/03 05:25:04;;;;;;;9.60;6.72;;;7.00;99.90;;;;;;5070135;28;20150;-48
2021/11/03 05:27:30;;;;;;;8.23;5.63;;;7.00;99.90;;;;;;5069035;28;20024;-48
2021/11/03 05:29:57;;;;;;;8.57;5.97;;;7.10;99.90;;;;;;5074905;28;20032;-49
2021/11/03 05:32:23;;;;;;;7.95;5.40;;;7.00;99.90;;;;;;5085142;28;20443;-47
2021/11/03 05:34:49;;;;;;;6.63;5.07;;;7.00;99.90;;;;;;5089924;28;20020;-48
2021/11/03 05:37:17;;;;;;;8.10;5.63;;;7.00;99.90;;;;;;5089221;28;20035;-50
2021/11/03 05:39:43;;;;;;;8.77;6.05;;;7.00;99.90;;;;;;5089655;28;20036;-47
2021/11/03 05:42:09;;;;;;;9.02;5.68;;;7.10;99.90;;;;;;5076930;28;20058;-49
2021/11/03 05:44:35;;;;;;;9.32;5.68;;;7.00;99.90;;;;;;5057114;28;20031;-50
2021/11/03 05:47:01;;;;;;;8.25;5.95;;;6.90;99.90;;;;;;5058890;28;20033;-46
2021/11/03 05:49:30;;;;;;;9.48;5.60;;;6.90;99.90;;;;;;5058562;28;20032;-48
2021/11/03 05:51:58;;;;;;;10.85;6.68;;;6.90;99.90;;;;;;5059877;28;20505;-46
2021/11/03 05:54:27;;;;;;;9.30;6.25;;;6.90;99.90;;;;;;5063748;28;20021;-47
2021/11/03 05:56:55;;;;;;;8.98;6.20;;;6.90;99.90;;;;;;5067087;28;20029;-47
2021/11/03 05:59:21;;;;;;;10.05;5.88;;;6.90;99.90;;;;;;5071326;28;20119;-50
2021/11/03 06:01:47;;;;;;;9.15;5.57;;;6.90;99.90;;;;;;5071651;28;20104;-46
2021/11/03 06:04:12;;;;;;;8.60;5.95;;;6.90;99.90;;;;;;5070648;28;20024;-47
2021/11/03 06:06:38;;;;;;;11.80;7.30;;;6.90;99.90;;;;;;5069286;28;20060;-46
2021/11/03 06:09:07;;;;;;;12.05;7.30;;;6.90;99.90;;;;;;5070445;28;20528;-48
2021/11/03 06:11:34;;;;;;;10.45;6.70;;;7.00;99.90;;;;;;5070963;28;20036;-49
2021/11/03 06:14:00;;;;;;;8.40;5.82;;;6.90;99.90;;;;;;5070470;28;20044;-48
2021/11/03 06:16:25;;;;;;;9.88;5.78;;;6.90;99.90;;;;;;5070583;28;20509;-48
2021/11/03 06:18:51;;;;;;;8.82;5.60;;;6.90;99.90;;;;;;5069950;28;20024;-48
2021/11/03 06:21:17;;;;;;;8.95;6.10;;;6.90;99.90;;;;;;5070617;28;20056;-47
2021/11/03 06:23:43;;;;;;;13.18;7.05;;;6.80;99.90;;;;;;5053929;28;20021;-47
2021/11/03 06:26:12;;;;;;;11.95;6.88;;;6.90;99.90;;;;;;5070469;28;20082;-46
2021/11/03 06:28:38;;;;;;;11.27;7.95;;;6.90;99.90;;;;;;5072221;28;20161;-46
2021/11/03 06:31:03;;;;;;;11.38;7.70;;;7.00;99.90;;;;;;5083261;28;20456;-48
2021/11/03 06:33:29;;;;;;;11.75;6.95;;;7.00;99.90;;;;;;5082421;28;20048;-47
2021/11/03 06:35:55;;;;;;;13.48;6.90;;;7.00;99.90;;;;;;5067707;28;20027;-47
2021/11/03 06:38:21;;;;;;;9.20;6.85;;;7.10;99.90;;;;;;5077456;28;20033;-49
2021/11/03 06:40:47;;;;;;;11.80;6.85;;;7.10;99.90;;;;;;5052561;28;20040;-49
2021/11/03 06:43:12;;;;;;;10.77;6.38;;;7.20;99.90;;;;;;5071306;28;20036;-49
2021/11/03 06:45:38;;;;;;;10.00;6.50;;;7.20;99.90;;;;;;5056982;28;20036;-50
2021/11/03 06:48:04;;;;;;;12.02;7.43;;;7.20;99.90;;;;;;5056350;28;20035;-49
2021/11/03 06:50:35;;;;;;;9.82;6.80;;;7.30;99.90;;;;;;5074569;28;20028;-50
2021/11/03 06:53:03;;;;;;;11.48;7.20;;;7.30;99.90;;;;;;5067200;28;20036;-48
2021/11/03 06:55:30;;;;;;;11.68;7.18;;;7.30;99.90;;;;;;5053327;28;20021;-48
2021/11/03 06:57:56;;;;;;;13.10;6.47;;;7.30;99.90;;;;;;5069650;28;20077;-49
2021/11/03 07:00:30;;;;;;;9.63;6.22;;;7.40;99.90;;;;;;5063269;28;20024;-49
2021/11/03 07:02:55;;;;;;;11.35;6.93;;;7.40;99.90;;;;;;5073626;28;20028;-47
2021/11/03 07:05:21;;;;;;;12.02;7.93;;;7.40;99.90;;;;;;5050847;28;20033;-49
2021/11/03 07:07:47;;;;;;;10.32;7.45;;;7.40;99.90;;;;;;5063810;28;20035;-50
2021/11/03 07:10:21;;;;;;;11.32;6.63;;;7.40;99.90;;;;;;5078517;28;20098;-48
2021/11/03 07:12:46;;;;;;;9.10;6.88;;;7.40;99.90;;;;;;5071256;28;20109;-50
2021/11/03 07:15:12;;;;;;;10.02;6.55;;;7.50;99.90;;;;;;5061659;28;20099;-48
2021/11/03 07:17:37;;;;;;;11.73;7.03;;;7.50;99.90;;;;;;5066141;28;20037;-48
2021/11/03 07:20:03;;;;;;;9.85;6.45;;;7.50;99.90;;;;;;5052419;28;20029;-47
2021/11/03 07:22:29;;;;;;;9.98;6.82;;;7.50;99.90;;;;;;5057744;28;20267;-47
2021/11/03 07:24:54;;;;;;;10.27;6.85;;;7.50;99.90;;;;;;5080405;28;20482;-50
2021/11/03 07:27:20;;;;;;;8.18;6.20;;;7.50;99.90;;;;;;5070791;28;20121;-47
2021/11/03 07:29:46;;;;;;;12.95;6.68;;;7.60;99.90;;;;;;5068474;28;20048;-48
2021/11/03 07:32:12;;;;;;;10.98;7.35;;;7.60;99.90;;;;;;5069199;28;20481;-47
2021/11/03 07:34:38;;;;;;;11.07;7.05;;;7.60;99.90;;;;;;5075293;28;20111;-46
2021/11/03 07:37:05;;;;;;;12.02;6.72;;;7.60;99.90;;;;;;5065557;28;20112;-47
2021/11/03 07:39:32;;;;;;;10.38;7.20;;;7.70;99.90;;;;;;5061638;28;20032;-46
2021/11/03 07:41:57;;;;;;;13.40;8.02;;;7.70;99.90;;;;;;5059664;28;20107;-47
2021/11/03 07:44:22;;;;;;;10.70;6.60;;;7.80;99.90;;;;;;5057817;28;20099;-47
2021/11/03 07:46:48;;;;;;;10.15;6.72;;;7.80;99.90;;;;;;5056836;28;20025;-47
2021/11/03 07:49:14;;;;;;;9.88;6.18;;;7.90;99.90;;;;;;5058810;28;20068;-46
2021/11/03 07:51:39;;;;;;;9.30;7.28;;;8.00;99.90;;;;;;5057396;28;20489;-48
2021/11/03 07:54:05;;;;;;;10.63;7.65;;;8.00;99.90;;;;;;5058273;28;20505;-46
2021/11/03 07:56:34;;;;;;;12.60;7.32;;;8.00;99.90;;;;;;5058629;28;20306;-46
2021/11/03 07:58:59;;;;;;;9.93;6.35;;;8.00;99.90;;;;;;5056442;28;20025;-48
2021/11/03 08:01:25;;;;;;;9.75;6.90;;;8.00;99.90;;;;;;5059149;28;20021;-49
2021/11/03 08:03:51;;;;;;;9.93;5.85;;;8.00;99.90;;;;;;5055586;28;20016;-46
2021/11/03 08:06:17;;;;;;;8.70;6.03;;;8.10;99.90;;;;;;5059070;28;20305;-46
2021/11/03 08:08:48;;;;;;;14.55;7.20;;;8.20;99.90;;;;;;5057920;28;20492;-46
2021/11/03 08:11:15;;;;;;;9.15;6.28;;;8.30;99.90;;;;;;5060120;28;20654;-52
2021/11/03 08:13:43;;;;;;;11.68;7.93;;;8.30;99.90;;;;;;5058759;28;20103;-47
2021/11/03 08:16:08;;;;;;;10.63;7.32;;;8.30;99.90;;;;;;5058508;28;20086;-46
2021/11/03 08:18:39;;;;;;;7.88;6.15;;;8.30;99.90;;;;;;5058773;28;20025;-47
2021/11/03 08:21:05;;;;;;;9.48;7.22;;;8.30;99.90;;;;;;5058232;28;20027;-50
2021/11/03 08:23:31;;;;;;;10.27;6.60;;;8.40;99.90;;;;;;5058033;28;20425;-49
2021/11/03 08:25:57;;;;;;;13.90;5.75;;;8.40;99.90;;;;;;5059054;28;20056;-49
2021/11/03 08:28:23;;;;;;;11.38;6.68;;;8.40;99.90;;;;;;5057500;28;20474;-46
2021/11/03 08:30:51;;;;;;;9.23;6.50;;;8.50;99.90;;;;;;5060585;28;20394;-49
2021/11/03 08:33:21;;;;;;;11.48;7.60;;;8.50;99.90;;;;;;5060836;28;20025;-48
2021/11/03 08:35:50;;;;;;;9.50;7.15;;;8.60;99.90;;;;;;5059165;28;20020;-50
2021/11/03 08:38:20;;;;;;;9.48;6.45;;;8.60;99.90;;;;;;5058274;28;20107;-48
2021/11/03 08:40:47;;;;;;;10.38;6.53;;;8.60;99.90;;;;;;5057898;28;20037;-46
2021/11/03 08:43:15;;;;;;;11.55;7.05;;;8.60;99.90;;;;;;5048675;28;20044;-49
2021/11/03 08:45:40;;;;;;;11.98;7.35;;;8.70;99.90;;;;;;5056096;28;20024;-48
2021/11/03 08:48:07;;;;;;;10.38;6.70;;;8.80;99.90;;;;;;5063120;28;20448;-49
2021/11/03 08:50:36;;;;;;;13.18;7.85;;;8.80;99.90;;;;;;5067011;28;20266;-49
2021/11/03 08:53:03;;;;;;;11.10;6.80;;;8.80;99.90;;;;;;5070757;28;20078;-49
2021/11/03 08:55:29;;;;;;;9.38;6.65;;;8.90;99.90;;;;;;5058107;28;20125;-46
2021/11/03 08:57:57;;;;;;;10.05;6.63;;;9.00;99.90;;;;;;5052599;28;20429;-47
2021/11/03 09:00:26;;;;;;;11.10;7.18;;;9.00;99.90;;;;;;5071893;28;20020;-48
2021/11/03 09:02:55;;;;;;;11.65;6.95;;;9.00;99.90;;;;;;5074962;28;20021;-47
2021/11/03 09:05:22;;;;;;;13.70;7.60;;;9.00;99.90;;;;;;5058059;28;20074;-47
2021/11/03 09:07:47;;;;;;;11.40;7.22;;;9.10;99.90;;;;;;5048108;28;20040;-50
2021/11/03 09:10:16;;;;;;;8.30;6.35;;;9.00;99.90;;;;;;5071683;28;20029;-47
2021/11/03 09:12:42;;;;;;;11.60;7.57;;;9.10;99.90;;;;;;5066775;28;20085;-49
2021/11/03 09:15:09;;;;;;;11.63;7.22;;;9.10;99.90;;;;;;5060600;28;20037;-49
2021/11/03 09:17:34;;;;;;;9.15;7.05;;;9.10;99.90;;;;;;5047058;28;20029;-51
2021/11/03 09:20:00;;;;;;;12.00;7.80;;;9.20;99.90;;;;;;5065557;28;20553;-49
2021/11/03 09:22:26;;;;;;;10.70;7.60;;;9.20;99.90;;;;;;5049256;28;20039;-49
2021/11/03 09:24:52;;;;;;;13.43;7.47;;;9.20;99.90;;;;;;5051899;28;20056;-48
2021/11/03 09:27:18;;;;;;;13.07;7.72;;;9.20;99.90;;;;;;5066872;28;20415;-48
2021/11/03 09:29:47;;;;;;;11.02;7.38;;;9.20;99.90;;;;;;5070093;28;20444;-50
2021/11/03 09:32:15;;;;;;;11.13;6.95;;;9.30;99.90;;;;;;5062207;28;20033;-49
2021/11/03 09:34:46;;;;;;;11.57;7.18;;;9.40;99.90;;;;;;5067272;28;20490;-47
2021/11/03 09:37:12;;;;;;;10.40;7.00;;;9.50;99.90;;;;;;5051048;28;20128;-48
2021/11/03 09:39:38;;;;;;;9.30;7.05;;;9.60;99.90;;;;;;5062447;28;20394;-48
2021/11/03 09:42:04;;;;;;;11.10;7.22;;;9.80;99.90;;;;;;5062982;28;20071;-47
2021/11/03 09:44:33;;;;;;;11.40;6.97;;;9.90;99.90;;;;;;5073582;28;20012;-50
2021/11/03 09:47:16;;;;;;;15.85;7.55;;;9.90;99.90;;;;;;5053124;28;20032;-48
2021/11/03 09:49:49;;;;;;;10.75;6.78;;;10.00;99.90;;;;;;5083333;28;20107;-50
2021/11/03 09:52:20;;;;;;;10.57;6.82;;;10.00;99.90;;;;;;5075896;28;20028;-50
2021/11/03 09:54:51;;;;;;;10.93;6.80;;;10.10;99.90;;;;;;5056732;28;20260;-47
2021/11/03 09:57:35;;;;;;;8.95;6.28;;;10.10;99.90;;;;;;5061222;28;20040;-50
2021/11/03 10:00:26;;;;;;;10.07;6.38;;;10.00;99.90;;;;;;5059793;28;20028;-49
2021/11/03 10:03:22;;;;;;;9.02;6.40;;;10.10;99.90;;;;;;5071773;28;20375;-50
2021/11/03 10:06:06;;;;;;;8.40;6.10;;;10.20;99.90;;;;;;5061963;28;20405;-47
2021/11/03 10:08:37;;;;;;;9.25;6.35;;;10.10;99.90;;;;;;5050865;28;20510;-49
2021/11/03 10:11:23;;;;;;;;;;;10.10;99.90;;;;;;5069237;28;20029;-48
2021/11/03 10:13:50;;;;;;;10.77;6.95;;;10.10;99.90;;;;;;5064366;28;20304;-50
2021/11/03 10:16:16;;;;;;;11.60;6.25;;;10.10;99.90;;;;;;5050510;28;20025;-48
2021/11/03 10:18:54;;;;;;;8.35;6.40;;;10.10;99.90;;;;;;5061199;28;20035;-48
2021/11/03 10:21:33;;;;;;;10.82;6.05;;;10.20;99.90;;;;;;5075433;28;20111;-49
2021/11/03 10:24:20;;;;;;;10.57;6.25;;;10.30;99.90;;;;;;5057479;28;20087;-50
2021/11/03 10:26:54;;;;;;;11.77;6.47;;;10.30;99.90;;;;;;5063560;28;20110;-49
2021/11/03 10:29:36;;;;;;;9.95;6.70;;;10.40;99.90;;;;;;5055999;28;20032;-49
2021/11/03 10:32:08;;;;;;;9.43;6.28;;;10.50;99.90;;;;;;5063291;28;20089;-47
2021/11/03 10:34:33;;;;;;;10.25;6.25;;;10.50;99.90;;;;;;5062946;28;20024;-50
2021/11/03 10:37:11;;;;;;;10.73;6.25;;;10.60;99.90;;;;;;5059451;28;20072;-51
2021/11/03 10:39:53;;;;;;;11.52;6.28;;;10.70;99.90;;;;;;5059887;28;20081;-50
2021/11/03 10:42:35;;;;;;;8.63;6.68;;;10.80;99.90;;;;;;5057814;28;20020;-50
2021/11/03 10:45:13;;;;;;;9.60;6.40;;;11.10;99.90;;;;;;5058196;28;20226;-47
2021/11/03 10:47:39;;;;;;;8.50;5.65;;;11.20;99.90;;;;;;5058135;28;20055;-50
2021/11/03 10:50:27;;;;;;;8.18;5.70;;;11.50;99.90;;;;;;5059234;28;20020;-49
2021/11/03 10:52:59;;;;;;;6.82;5.32;;;11.60;99.90;;;;;;5061517;28;20057;-48
2021/11/03 10:55:37;;;;;;;7.00;4.95;;;11.80;99.90;;;;;;5062522;28;20120;-49
2021/11/03 10:58:10;;;;;;;5.75;4.43;;;11.90;99.90;;;;;;5056926;28;20111;-47
2021/11/03 11:00:59;;;;;;;5.63;4.35;;;12.00;99.90;;;;;;5060860;28;20453;-49
2021/11/03 11:03:31;;;;;;;7.45;4.93;;;12.20;99.90;;;;;;5074011;28;20483;-50
2021/11/03 11:06:06;;;;;;;5.35;4.40;;;12.50;99.90;;;;;;5057855;28;20043;-51
2021/11/03 11:08:32;;;;;;;7.47;4.90;;;12.80;99.90;;;;;;5053279;28;20020;-48
2021/11/03 11:11:02;;;;;;;7.82;5.75;;;13.10;99.90;;;;;;5067295;28;20564;-51
2021/11/03 11:13:31;;;;;;;6.47;5.03;;;13.50;99.90;;;;;;5049945;28;20029;-48
2021/11/03 11:16:12;;;;;;;6.85;4.70;;;13.50;99.90;;;;;;5064556;28;20451;-47
2021/11/03 11:18:42;;;;;;;8.55;5.90;;;13.50;99.90;;;;;;5061596;28;20475;-50
2021/11/03 11:21:18;;;;;;;7.45;5.65;;;13.60;99.90;;;;;;5074762;28;20028;-49
2021/11/03 11:23:56;;;;;;;6.40;4.82;;;13.70;99.90;;;;;;5076031;28;20032;-50
2021/11/03 11:26:37;;;;;;;7.22;4.97;;;13.70;99.90;;;;;;5072227;28;20032;-48
2021/11/03 11:29:14;;;;;;;7.60;4.68;;;13.80;99.90;;;;;;5055460;28;20039;-48
2021/11/03 11:32:06;;;;;;;5.63;4.75;;;14.00;99.90;;;;;;5081433;28;20032;-49
2021/11/03 11:34:50;;;;;;;6.47;4.40;;;13.90;99.90;;;;;;5050847;28;20057;-48
2021/11/03 11:37:48;;;;;;;5.40;4.45;;;13.90;99.90;;;;;;5065993;28;20025;-50
2021/11/03 11:40:22;;;;;;;7.38;3.85;;;14.00;99.90;;;;;;5053287;28;20029;-47
2021/11/03 11:43:01;;;;;;;7.25;4.95;;;13.90;99.90;;;;;;5063481;28;20463;-50
2021/11/03 11:45:33;;;;;;;5.40;4.72;;;13.70;99.90;;;;;;5073820;28;20270;-47
2021/11/03 11:48:23;;;;;;;6.90;4.80;;;14.00;99.90;;;;;;5068321;28;20064;-50
2021/11/03 11:51:04;;;;;;;6.82;4.05;;;14.60;99.90;;;;;;5058857;28;20051;-50
2021/11/03 11:53:48;;;;;;;;;;;15.00;99.70;;;;;;5059414;28;20033;-49
2021/11/03 11:56:26;;;;;;;6.97;4.50;;;15.10;98.60;;;;;;5061672;28;20215;-49
2021/11/03 11:59:18;;;;;;;7.88;4.82;;;14.90;98.20;;;;;;5057042;28;20025;-49
2021/11/03 12:01:46;;;;;;;7.82;5.88;;;14.80;98.10;;;;;;5064932;28;20025;-48
2021/11/03 12:04:30;;;;;;;10.20;6.57;;;14.40;98.60;;;;;;5051642;28;20029;-50
2021/11/03 12:06:56;;;;;;;7.15;4.78;;;14.10;99.40;;;;;;5051326;28;20163;-48
2021/11/03 12:09:42;;;;;;;9.25;6.72;;;13.90;99.90;;;;;;5054414;28;20446;-47
2021/11/03 12:12:07;;;;;;;13.00;6.70;;;13.60;99.90;;;;;;5063418;28;20491;-50
2021/11/03 12:14:38;;;;;;;9.40;6.72;;;13.40;99.90;;;;;;5057619;28;20025;-47
2021/11/03 12:17:07;;;;;;;11.85;6.63;;;13.20;99.90;;;;;;5053815;28;20368;-49
2021/11/03 12:19:42;;;;;;;14.75;7.47;;;12.80;99.90;;;;;;5061627;28;20105;-50
2021/11/03 12:22:10;;;;;;;16.15;10.15;;;12.70;99.90;;;;;;5078750;28;20020;-50
2021/11/03 12:24:48;;;;;;;12.73;8.90;;;12.60;99.90;;;;;;5048703;28;20025;-48
2021/11/03 12:27:15;;;;;;;8.93;6.15;;;12.50;99.90;;;;;;5050747;28;20039;-51
2021/11/03 12:29:42;;;;;;;9.65;6.55;;;12.60;99.90;;;;;;5051789;28;20037;-47
2021/11/03 12:32:39;;;;;;;11.27;6.03;;;12.50;99.90;;;;;;5077740;28;20040;-50
2021/11/03 12:35:25;;;;;;;9.23;6.28;;;12.60;99.90;;;;;;5061876;28;20584;-49
2021/11/03 12:38:11;;;;;;;10.15;6.95;;;12.40;99.90;;;;;;5066917;28;20269;-50
2021/11/03 12:40:36;;;;;;;13.70;7.55;;;12.30;99.90;;;;;;5073780;28;20024;-49
2021/11/03 12:43:25;;;;;;;20.98;10.30;;;12.30;99.90;;;;;;5069096;28;20033;-50
2021/11/03 12:46:08;;;;;;;16.20;9.25;;;12.20;99.90;;;;;;5074471;28;20533;-50
2021/11/03 12:48:38;;;;;;;13.68;8.88;;;12.10;99.90;;;;;;5066017;28;20541;-47
2021/11/03 12:51:31;;;;;;;9.13;7.20;;;12.10;99.90;;;;;;5074271;28;20044;-50
2021/11/03 12:54:06;;;;;;;13.85;7.53;;;12.00;99.90;;;;;;5063290;28;20059;-48
2021/11/03 12:56:38;;;;;;;11.80;7.32;;;12.00;99.90;;;;;;5068031;28;20031;-51
2021/11/03 12:59:22;;;;;;;10.20;7.35;;;11.90;99.90;;;;;;5057975;28;20033;-49
2021/11/03 13:01:56;;;;;;;9.18;6.43;;;11.80;99.90;;;;;;5070774;28;20478;-47
2021/11/03 13:04:28;;;;;;;11.10;7.40;;;11.80;99.90;;;;;;5071590;28;20036;-48